Time;durP1;ratioP1;P1;durP2;ratioP2;P2;SDS_P1;SDS_P2;PMS_P1;PMS_P2;Temp;Humidity;BMP_temperature;BMP_pressure;BME280_temperature;BME280_humidity;BME280_pressure;Samples;Min_cycle;Max_cycle;Signal;HPM_P1;HPM_P2
2023/09/15 00:01:03;;;;;;;12.68;5.70;;;;;;;;;;6175716;23;20012;-54
2023/09/15 00:03:32;;;;;;;14.02;6.22;;;;;;;;;;6188694;23;20032;-57
2023/09/15 00:05:59;;;;;;;13.63;5.50;;;;;;;;;;6157364;23;20020;-57
2023/09/15 00:08:28;;;;;;;12.77;6.07;;;;;;;;;;6180211;23;20017;-57
2023/09/15 00:10:56;;;;;;;11.03;5.87;;;;;;;;;;6180703;23;20016;-57
2023/09/15 00:13:26;;;;;;;12.07;5.72;;;;;;;;;;6180719;23;20023;-56
2023/09/15 00:15:53;;;;;;;13.68;6.70;;;;;;;;;;6187177;23;20404;-55
2023/09/15 00:18:21;;;;;;;13.55;6.60;;;;;;;;;;6172892;23;20075;-56
2023/09/15 00:20:49;;;;;;;13.15;5.53;;;;;;;;;;6188624;23;20478;-57
2023/09/15 00:23:18;;;;;;;10.67;5.60;;;;;;;;;;6186187;23;20431;-56
2023/09/15 00:25:47;;;;;;;12.70;5.32;;;;;;;;;;6183213;23;20431;-55
2023/09/15 00:28:15;;;;;;;11.57;5.65;;;;;;;;;;6154963;23;20017;-57
2023/09/15 00:30:44;;;;;;;11.98;5.30;;;;;;;;;;6191864;23;20020;-56
2023/09/15 00:33:12;;;;;;;13.05;5.72;;;;;;;;;;6175203;23;20019;-57
2023/09/15 00:35:40;;;;;;;12.10;5.30;;;;;;;;;;6164776;23;20020;-57
2023/09/15 00:38:08;;;;;;;12.57;5.60;;;;;;;;;;6182459;23;20016;-57
2023/09/15 00:40:36;;;;;;;12.50;5.00;;;;;;;;;;6182985;23;20023;-56
2023/09/15 00:43:04;;;;;;;12.68;5.80;;;;;;;;;;6178539;23;20442;-56
2023/09/15 00:45:32;;;;;;;13.30;5.78;;;;;;;;;;6191198;23;20043;-53
2023/09/15 00:48:05;;;;;;;12.93;5.90;;;;;;;;;;6186756;23;20017;-57
2023/09/15 00:50:36;;;;;;;14.40;4.95;;;;;;;;;;6188970;23;20080;-57
2023/09/15 00:53:05;;;;;;;12.15;5.30;;;;;;;;;;6180691;23;20016;-56
2023/09/15 00:55:34;;;;;;;13.40;5.50;;;;;;;;;;6188843;23;20024;-57
2023/09/15 00:58:03;;;;;;;11.68;5.32;;;;;;;;;;6183864;23;20087;-57
2023/09/15 01:00:33;;;;;;;12.43;5.30;;;;;;;;;;6182839;23;20078;-57
2023/09/15 01:03:02;;;;;;;11.32;4.90;;;;;;;;;;6157247;23;20021;-57
2023/09/15 01:05:31;;;;;;;10.88;5.13;;;;;;;;;;6150526;23;20059;-55
2023/09/15 01:07:59;;;;;;;9.95;5.20;;;;;;;;;;6155040;23;20403;-57
2023/09/15 01:10:27;;;;;;;10.82;5.20;;;;;;;;;;6148732;23;20444;-56
2023/09/15 01:12:55;;;;;;;11.53;4.80;;;;;;;;;;6155175;23;20021;-56
2023/09/15 01:15:27;;;;;;;11.80;5.28;;;;;;;;;;6152726;23;20441;-55
2023/09/15 01:17:58;;;;;;;12.60;5.25;;;;;;;;;;6157309;23;20062;-54
2023/09/15 01:20:44;;;;;;;13.48;5.72;;;;;;;;;;6141958;23;20025;-58
2023/09/15 01:23:25;;;;;;;12.60;6.07;;;;;;;;;;6126439;23;20013;-58
2023/09/15 01:26:03;;;;;;;13.27;5.80;;;;;;;;;;6152550;23;20021;-54
2023/09/15 01:28:44;;;;;;;11.55;5.07;;;;;;;;;;6132343;23;20017;-56
2023/09/15 01:31:15;;;;;;;12.45;5.85;;;;;;;;;;6151558;23;20031;-57
2023/09/15 01:33:44;;;;;;;13.95;6.28;;;;;;;;;;6154357;23;20021;-55
2023/09/15 01:36:11;;;;;;;16.10;6.00;;;;;;;;;;6155905;23;20679;-56
2023/09/15 01:38:40;;;;;;;11.50;6.10;;;;;;;;;;6148321;23;20021;-56
2023/09/15 01:41:08;;;;;;;12.40;6.03;;;;;;;;;;6158538;23;20020;-55
2023/09/15 01:43:35;;;;;;;11.73;6.30;;;;;;;;;;6148806;23;20377;-53
2023/09/15 01:46:03;;;;;;;13.60;6.45;;;;;;;;;;6152380;23;20072;-55
2023/09/15 01:48:33;;;;;;;11.43;6.28;;;;;;;;;;6155996;23;20458;-56
2023/09/15 01:51:02;;;;;;;14.03;6.93;;;;;;;;;;6161277;23;20452;-56
2023/09/15 01:53:31;;;;;;;12.88;5.80;;;;;;;;;;6156483;23;20024;-57
2023/09/15 01:55:59;;;;;;;13.23;5.65;;;;;;;;;;6162234;23;20412;-57
2023/09/15 01:58:26;;;;;;;12.52;5.90;;;;;;;;;;6156188;23;20137;-54
2023/09/15 02:00:56;;;;;;;13.15;6.85;;;;;;;;;;6164422;23;20013;-56
2023/09/15 02:03:24;;;;;;;12.87;6.30;;;;;;;;;;6192619;23;20020;-56
2023/09/15 02:05:53;;;;;;;14.15;6.70;;;;;;;;;;6170381;23;20394;-55
2023/09/15 02:08:21;;;;;;;11.43;6.03;;;;;;;;;;6194829;23;20012;-55
2023/09/15 02:10:48;;;;;;;16.45;7.10;;;;;;;;;;6185224;23;20346;-54
2023/09/15 02:13:16;;;;;;;13.52;6.38;;;;;;;;;;6192585;23;20017;-55
2023/09/15 02:15:44;;;;;;;12.00;6.23;;;;;;;;;;6180957;23;20025;-54
2023/09/15 02:18:12;;;;;;;12.57;6.55;;;;;;;;;;6194648;23;20487;-56
2023/09/15 02:20:40;;;;;;;13.88;6.43;;;;;;;;;;6167414;23;20013;-55
2023/09/15 02:23:10;;;;;;;14.27;6.00;;;;;;;;;;6194284;23;20019;-56
2023/09/15 02:25:38;;;;;;;12.13;5.45;;;;;;;;;;6189943;23;20020;-55
2023/09/15 02:28:06;;;;;;;15.53;7.73;;;;;;;;;;6186743;23;20079;-55
2023/09/15 02:30:35;;;;;;;11.23;5.80;;;;;;;;;;6195367;23;20024;-56
2023/09/15 02:33:02;;;;;;;14.15;5.72;;;;;;;;;;6188060;23;20016;-56
2023/09/15 02:35:34;;;;;;;10.27;5.60;;;;;;;;;;6194792;23;20443;-56
2023/09/15 02:38:05;;;;;;;12.95;6.00;;;;;;;;;;6188206;23;20013;-57
2023/09/15 02:40:35;;;;;;;12.13;6.23;;;;;;;;;;6194995;23;20031;-56
2023/09/15 02:43:05;;;;;;;12.68;5.25;;;;;;;;;;6194190;23;20023;-57
2023/09/15 02:45:34;;;;;;;12.82;6.07;;;;;;;;;;6183541;23;20022;-56
2023/09/15 02:48:02;;;;;;;13.52;6.75;;;;;;;;;;6190907;23;20020;-56
2023/09/15 02:50:30;;;;;;;14.38;6.35;;;;;;;;;;6183223;23;20129;-55
2023/09/15 02:52:59;;;;;;;11.00;5.70;;;;;;;;;;6193011;23;20063;-57
2023/09/15 02:55:27;;;;;;;12.05;6.53;;;;;;;;;;6187234;23;20021;-53
2023/09/15 02:57:56;;;;;;;12.93;6.80;;;;;;;;;;6180033;23;20013;-56
2023/09/15 03:00:24;;;;;;;11.73;5.93;;;;;;;;;;6195153;23;20430;-55
2023/09/15 03:02:52;;;;;;;13.45;7.00;;;;;;;;;;6152616;23;20448;-54
2023/09/15 03:05:21;;;;;;;15.03;6.33;;;;;;;;;;6163543;23;20096;-54
2023/09/15 03:07:48;;;;;;;14.25;6.57;;;;;;;;;;6152358;23;20021;-54
2023/09/15 03:10:16;;;;;;;15.07;6.75;;;;;;;;;;6160060;23;20083;-53
2023/09/15 03:12:44;;;;;;;11.23;5.70;;;;;;;;;;6153070;23;20456;-52
2023/09/15 03:15:13;;;;;;;15.20;6.43;;;;;;;;;;6162751;23;20079;-56
2023/09/15 03:17:41;;;;;;;11.77;6.00;;;;;;;;;;6154336;23;20036;-56
2023/09/15 03:20:13;;;;;;;13.40;7.07;;;;;;;;;;6160589;23;20017;-56
2023/09/15 03:22:41;;;;;;;13.30;7.40;;;;;;;;;;6154443;23;20013;-53
2023/09/15 03:25:09;;;;;;;14.32;7.47;;;;;;;;;;6152593;23;20013;-56
2023/09/15 03:27:38;;;;;;;18.05;8.38;;;;;;;;;;6159592;23;20326;-55
2023/09/15 03:30:07;;;;;;;14.50;8.13;;;;;;;;;;6139382;23;20043;-57
2023/09/15 03:32:38;;;;;;;19.02;8.65;;;;;;;;;;6164982;23;20084;-57
2023/09/15 03:35:07;;;;;;;16.98;8.40;;;;;;;;;;6123285;23;20017;-56
2023/09/15 03:37:34;;;;;;;15.48;8.45;;;;;;;;;;6166531;23;20503;-57
2023/09/15 03:40:04;;;;;;;15.95;7.70;;;;;;;;;;6154295;23;20636;-55
2023/09/15 03:42:32;;;;;;;15.27;7.57;;;;;;;;;;6157226;23;20017;-57
2023/09/15 03:45:00;;;;;;;16.48;7.38;;;;;;;;;;6160316;23;20021;-57
2023/09/15 03:47:28;;;;;;;13.15;7.13;;;;;;;;;;6161657;23;20016;-56
2023/09/15 03:49:58;;;;;;;17.63;7.78;;;;;;;;;;6155675;23;20016;-56
2023/09/15 03:52:25;;;;;;;15.27;7.68;;;;;;;;;;6139557;23;20025;-53
2023/09/15 03:55:11;;;;;;;14.77;7.40;;;;;;;;;;6157276;23;20021;-55
2023/09/15 03:57:39;;;;;;;18.92;8.90;;;;;;;;;;6141367;23;20024;-54
2023/09/15 04:00:11;;;;;;;16.27;8.80;;;;;;;;;;6160918;23;20044;-56
2023/09/15 04:02:39;;;;;;;12.95;7.53;;;;;;;;;;6173616;23;20028;-56
2023/09/15 04:05:10;;;;;;;13.50;6.70;;;;;;;;;;6186787;23;20016;-57
2023/09/15 04:07:37;;;;;;;13.10;6.80;;;;;;;;;;6171723;23;20626;-53
2023/09/15 04:10:06;;;;;;;12.82;6.30;;;;;;;;;;6189323;23;20023;-56
2023/09/15 04:12:38;;;;;;;13.25;6.68;;;;;;;;;;6192330;23;20020;-57
2023/09/15 04:15:07;;;;;;;13.35;6.18;;;;;;;;;;6162514;23;20021;-56
2023/09/15 04:17:34;;;;;;;12.38;6.05;;;;;;;;;;6174618;23;20028;-56
2023/09/15 04:20:08;;;;;;;12.50;5.80;;;;;;;;;;6186178;23;20020;-55
2023/09/15 04:22:38;;;;;;;13.43;6.97;;;;;;;;;;6180280;23;20095;-56
2023/09/15 04:25:06;;;;;;;12.70;6.13;;;;;;;;;;6188727;23;20083;-54
2023/09/15 04:27:34;;;;;;;13.73;6.30;;;;;;;;;;6184269;23;20084;-56
2023/09/15 04:30:02;;;;;;;12.00;6.78;;;;;;;;;;6194139;23;20595;-55
2023/09/15 04:32:30;;;;;;;11.70;6.00;;;;;;;;;;6158056;23;20044;-55
2023/09/15 04:34:58;;;;;;;18.10;7.07;;;;;;;;;;6194646;23;20016;-55
2023/09/15 04:37:25;;;;;;;12.98;6.57;;;;;;;;;;6166818;23;20451;-54
2023/09/15 04:39:54;;;;;;;15.48;7.97;;;;;;;;;;6189461;23;20012;-56
2023/09/15 04:42:22;;;;;;;16.17;8.20;;;;;;;;;;6184556;23;20013;-53
2023/09/15 04:44:50;;;;;;;17.33;8.70;;;;;;;;;;6193025;23;20020;-54
2023/09/15 04:47:29;;;;;;;15.18;8.63;;;;;;;;;;6188017;23;20016;-55
2023/09/15 04:50:00;;;;;;;16.42;8.68;;;;;;;;;;6186117;23;20582;-57
2023/09/15 04:52:27;;;;;;;15.68;7.65;;;;;;;;;;6192544;23;20319;-54
2023/09/15 04:54:56;;;;;;;14.82;7.75;;;;;;;;;;6177842;23;20110;-56
2023/09/15 04:57:25;;;;;;;16.20;7.50;;;;;;;;;;6189219;23;20396;-54
2023/09/15 04:59:54;;;;;;;14.63;6.97;;;;;;;;;;6176504;23;20024;-56
2023/09/15 05:02:22;;;;;;;17.02;7.03;;;;;;;;;;6187570;23;20017;-55
2023/09/15 05:04:51;;;;;;;12.45;5.95;;;;;;;;;;6181934;23;20020;-54
2023/09/15 05:07:21;;;;;;;11.45;5.80;;;;;;;;;;6187085;23;20082;-56
2023/09/15 05:09:49;;;;;;;9.43;4.70;;;;;;;;;;6176416;23;20472;-56
2023/09/15 05:12:18;;;;;;;12.57;4.97;;;;;;;;;;6192105;23;20023;-55
2023/09/15 05:14:46;;;;;;;10.38;5.35;;;;;;;;;;6183794;23;20017;-54
2023/09/15 05:17:14;;;;;;;10.48;4.80;;;;;;;;;;6194104;23;20013;-56
2023/09/15 05:19:42;;;;;;;8.73;4.60;;;;;;;;;;6174618;23;20013;-56
2023/09/15 05:22:10;;;;;;;9.33;5.07;;;;;;;;;;6189472;23;20024;-57
2023/09/15 05:24:39;;;;;;;10.48;4.53;;;;;;;;;;6182194;23;20020;-56
2023/09/15 05:27:07;;;;;;;9.15;4.75;;;;;;;;;;6184304;23;20099;-54
2023/09/15 05:29:36;;;;;;;10.95;5.45;;;;;;;;;;6185926;23;20090;-55
2023/09/15 05:32:04;;;;;;;10.45;5.63;;;;;;;;;;6190759;23;20030;-60
2023/09/15 05:34:33;;;;;;;10.40;5.33;;;;;;;;;;6180229;23;20323;-57
2023/09/15 05:37:00;;;;;;;11.82;5.63;;;;;;;;;;6186947;23;20031;-57
2023/09/15 05:39:28;;;;;;;10.88;5.57;;;;;;;;;;6187005;23;20048;-55
2023/09/15 05:41:56;;;;;;;10.30;5.10;;;;;;;;;;6167489;23;20623;-55
2023/09/15 05:44:24;;;;;;;11.32;5.22;;;;;;;;;;6186753;23;20021;-54
2023/09/15 05:46:53;;;;;;;11.53;4.63;;;;;;;;;;6181181;23;20012;-57
2023/09/15 05:49:21;;;;;;;9.18;4.45;;;;;;;;;;6182498;23;20079;-56
2023/09/15 05:51:49;;;;;;;8.98;4.72;;;;;;;;;;6182443;23;20013;-56
2023/09/15 05:54:17;;;;;;;12.13;4.95;;;;;;;;;;6185406;23;20016;-55
2023/09/15 05:56:45;;;;;;;11.10;4.88;;;;;;;;;;6178439;23;20917;-57
2023/09/15 05:59:12;;;;;;;10.77;5.37;;;;;;;;;;6185690;23;20025;-56
2023/09/15 06:01:46;;;;;;;12.90;5.85;;;;;;;;;;6180805;23;20020;-57
2023/09/15 06:04:16;;;;;;;11.75;5.10;;;;;;;;;;6188621;23;20013;-57
2023/09/15 06:06:43;;;;;;;13.98;5.53;;;;;;;;;;6181910;23;20026;-57
2023/09/15 06:09:11;;;;;;;9.65;5.20;;;;;;;;;;6189832;23;20016;-59
2023/09/15 06:11:39;;;;;;;11.07;4.90;;;;;;;;;;6170424;23;20431;-56
2023/09/15 06:14:07;;;;;;;10.88;5.30;;;;;;;;;;6188803;23;20020;-57
2023/09/15 06:16:36;;;;;;;11.98;5.65;;;;;;;;;;6183394;23;20447;-55
2023/09/15 06:19:05;;;;;;;10.85;5.82;;;;;;;;;;6173425;23;20033;-57
2023/09/15 06:21:36;;;;;;;11.50;5.97;;;;;;;;;;6159958;23;20070;-58
2023/09/15 06:24:04;;;;;;;12.07;6.43;;;;;;;;;;6179708;23;20023;-56
2023/09/15 06:26:32;;;;;;;12.25;6.53;;;;;;;;;;6181048;23;20087;-55
2023/09/15 06:29:00;;;;;;;12.80;7.22;;;;;;;;;;6187616;23;20029;-56
2023/09/15 06:31:27;;;;;;;13.07;6.43;;;;;;;;;;6184488;23;20027;-56
2023/09/15 06:33:55;;;;;;;12.48;5.95;;;;;;;;;;6185725;23;20021;-57
2023/09/15 06:36:27;;;;;;;12.70;6.23;;;;;;;;;;6156644;23;20063;-57
2023/09/15 06:38:58;;;;;;;11.82;5.80;;;;;;;;;;6194190;23;20020;-56
2023/09/15 06:41:25;;;;;;;11.90;6.25;;;;;;;;;;6180413;23;20024;-57
2023/09/15 06:43:53;;;;;;;13.00;6.97;;;;;;;;;;6179377;23;20251;-58
2023/09/15 06:46:22;;;;;;;12.38;6.05;;;;;;;;;;6189825;23;20391;-58
2023/09/15 06:48:51;;;;;;;13.43;7.43;;;;;;;;;;6189216;23;20072;-54
2023/09/15 06:51:19;;;;;;;13.60;7.43;;;;;;;;;;6185655;23;20399;-55
2023/09/15 06:53:47;;;;;;;15.27;7.68;;;;;;;;;;6182110;23;20020;-54
2023/09/15 06:56:16;;;;;;;16.33;7.40;;;;;;;;;;6188392;23;20446;-56
2023/09/15 06:58:43;;;;;;;15.73;8.00;;;;;;;;;;6174116;23;20431;-53
2023/09/15 07:01:12;;;;;;;16.77;7.87;;;;;;;;;;6179829;23;20023;-56
2023/09/15 07:03:40;;;;;;;16.17;8.70;;;;;;;;;;6176196;23;20008;-53
2023/09/15 07:06:08;;;;;;;14.88;7.43;;;;;;;;;;6187470;23;20017;-52
2023/09/15 07:08:36;;;;;;;20.35;9.43;;;;;;;;;;6185651;23;20643;-54
2023/09/15 07:11:03;;;;;;;16.77;8.20;;;;;;;;;;6161904;23;20024;-53
2023/09/15 07:13:32;;;;;;;20.60;7.70;;;;;;;;;;6178607;23;20020;-55
2023/09/15 07:16:00;;;;;;;17.00;8.15;;;;;;;;;;6181340;23;20027;-54
2023/09/15 07:18:27;;;;;;;23.67;10.05;;;;;;;;;;6178155;23;20017;-56
2023/09/15 07:20:56;;;;;;;20.77;9.88;;;;;;;;;;6169241;23;20013;-56
2023/09/15 07:23:24;;;;;;;22.88;10.57;;;;;;;;;;6189393;23;20071;-55
2023/09/15 07:25:52;;;;;;;21.77;10.23;;;;;;;;;;6171217;23;20538;-55
2023/09/15 07:28:20;;;;;;;22.13;9.32;;;;;;;;;;6183009;23;20364;-55
2023/09/15 07:30:49;;;;;;;20.17;9.52;;;;;;;;;;6189691;23;20353;-57
2023/09/15 07:33:17;;;;;;;24.15;10.13;;;;;;;;;;6178881;23;20523;-57
2023/09/15 07:35:45;;;;;;;19.30;10.15;;;;;;;;;;6180580;23;20056;-55
2023/09/15 07:38:12;;;;;;;18.93;10.20;;;;;;;;;;6184541;23;20027;-52
2023/09/15 07:40:40;;;;;;;20.67;10.00;;;;;;;;;;6183488;23;20013;-54
2023/09/15 07:43:08;;;;;;;17.30;9.18;;;;;;;;;;6176081;23;20017;-55
2023/09/15 07:45:35;;;;;;;18.73;10.85;;;;;;;;;;6177397;23;20054;-54
2023/09/15 07:48:05;;;;;;;19.80;9.45;;;;;;;;;;6183127;23;20017;-55
2023/09/15 07:50:34;;;;;;;18.43;10.23;;;;;;;;;;6178470;23;20390;-57
2023/09/15 07:53:02;;;;;;;20.70;10.50;;;;;;;;;;6184383;23;20021;-54
2023/09/15 07:55:30;;;;;;;16.35;9.10;;;;;;;;;;6175886;23;20870;-55
2023/09/15 07:57:58;;;;;;;20.63;9.35;;;;;;;;;;6186424;23;20470;-57
2023/09/15 08:00:26;;;;;;;18.65;8.70;;;;;;;;;;6176338;23;20055;-55
2023/09/15 08:02:53;;;;;;;20.37;9.17;;;;;;;;;;6179385;23;20017;-57
2023/09/15 08:05:23;;;;;;;21.23;8.75;;;;;;;;;;6176869;23;20459;-52
2023/09/15 08:07:51;;;;;;;16.35;8.38;;;;;;;;;;6184640;23;20020;-56
2023/09/15 08:10:21;;;;;;;17.63;8.50;;;;;;;;;;6185546;23;20017;-56
2023/09/15 08:12:52;;;;;;;17.67;8.50;;;;;;;;;;6177940;23;20020;-56
2023/09/15 08:15:21;;;;;;;19.73;9.10;;;;;;;;;;6149381;23;20073;-54
2023/09/15 08:17:49;;;;;;;20.48;8.63;;;;;;;;;;6159140;23;20350;-55
2023/09/15 08:20:17;;;;;;;19.33;8.75;;;;;;;;;;6134889;23;20040;-56
2023/09/15 08:22:47;;;;;;;18.73;8.55;;;;;;;;;;6169333;23;20055;-56
2023/09/15 08:25:14;;;;;;;19.27;9.20;;;;;;;;;;6165746;23;20021;-55
2023/09/15 08:27:44;;;;;;;19.30;8.37;;;;;;;;;;6160363;23;20017;-55
2023/09/15 08:30:13;;;;;;;17.92;8.68;;;;;;;;;;6169637;23;20017;-56
2023/09/15 08:32:42;;;;;;;17.83;9.52;;;;;;;;;;6156138;23;20020;-56
2023/09/15 08:35:10;;;;;;;20.92;10.27;;;;;;;;;;6167392;23;20443;-56
2023/09/15 08:37:38;;;;;;;19.45;9.77;;;;;;;;;;6159550;23;20023;-56
2023/09/15 08:40:08;;;;;;;23.27;10.60;;;;;;;;;;6138096;23;20017;-57
2023/09/15 08:42:36;;;;;;;23.95;10.75;;;;;;;;;;6157135;23;20021;-56
2023/09/15 08:45:07;;;;;;;22.75;11.73;;;;;;;;;;6143913;23;20032;-57
2023/09/15 08:47:38;;;;;;;21.73;11.48;;;;;;;;;;6163281;23;20020;-59
2023/09/15 08:50:06;;;;;;;25.83;13.27;;;;;;;;;;6161360;23;20078;-56
2023/09/15 08:52:35;;;;;;;24.63;12.93;;;;;;;;;;6156965;23;20016;-56
2023/09/15 08:55:03;;;;;;;26.27;12.75;;;;;;;;;;6157532;23;20023;-54
2023/09/15 08:57:34;;;;;;;25.58;11.48;;;;;;;;;;6148265;23;20016;-56
2023/09/15 09:00:02;;;;;;;25.80;12.35;;;;;;;;;;6170102;23;20020;-56
2023/09/15 09:02:31;;;;;;;23.02;12.02;;;;;;;;;;6141227;23;20524;-54
2023/09/15 09:04:59;;;;;;;21.77;11.10;;;;;;;;;;6117445;23;20048;-55
2023/09/15 09:07:27;;;;;;;22.85;10.80;;;;;;;;;;6135314;23;20498;-57
2023/09/15 09:09:55;;;;;;;23.25;11.55;;;;;;;;;;6090184;23;20024;-56
2023/09/15 09:12:23;;;;;;;19.15;9.98;;;;;;;;;;6143305;23;20017;-56
2023/09/15 09:14:55;;;;;;;19.00;9.40;;;;;;;;;;6138262;23;20475;-55
2023/09/15 09:17:23;;;;;;;17.83;9.47;;;;;;;;;;6120283;23;20329;-55
2023/09/15 09:19:51;;;;;;;16.63;8.65;;;;;;;;;;6143600;23;20017;-57
2023/09/15 09:22:18;;;;;;;18.80;8.35;;;;;;;;;;6131384;23;20245;-56
2023/09/15 09:24:53;;;;;;;16.27;9.02;;;;;;;;;;6146039;23;20020;-57
2023/09/15 09:27:21;;;;;;;17.88;8.82;;;;;;;;;;6125240;23;20028;-56
2023/09/15 09:29:49;;;;;;;21.37;10.40;;;;;;;;;;6142542;23;20017;-57
2023/09/15 09:32:18;;;;;;;19.42;9.70;;;;;;;;;;6138997;23;20087;-57
2023/09/15 09:34:49;;;;;;;18.63;9.57;;;;;;;;;;6135963;23;20049;-57
2023/09/15 09:37:24;;;;;;;16.63;9.05;;;;;;;;;;6127406;23;20024;-58
2023/09/15 09:39:52;;;;;;;20.63;9.30;;;;;;;;;;6139475;23;20017;-57
2023/09/15 09:42:22;;;;;;;22.00;9.73;;;;;;;;;;6131004;23;20017;-57
2023/09/15 09:44:51;;;;;;;20.75;9.23;;;;;;;;;;6143105;23;20913;-57
2023/09/15 09:47:21;;;;;;;17.20;8.80;;;;;;;;;;6132455;23;20020;-57
2023/09/15 09:49:49;;;;;;;12.63;6.50;;;;;;;;;;6131523;23;20612;-58
2023/09/15 09:52:17;;;;;;;14.38;6.10;;;;;;;;;;6145514;23;20017;-56
2023/09/15 09:54:49;;;;;;;10.73;4.93;;;;;;;;;;6133870;23;20162;-58
2023/09/15 09:57:17;;;;;;;12.27;6.68;;;;;;;;;;6139397;23;20031;-58
2023/09/15 09:59:44;;;;;;;13.85;7.13;;;;;;;;;;6128292;23;20028;-58
2023/09/15 10:02:12;;;;;;;11.65;5.65;;;;;;;;;;6155585;23;20020;-58
2023/09/15 10:04:41;;;;;;;11.45;4.45;;;;;;;;;;6118278;23;20549;-58
2023/09/15 10:07:09;;;;;;;8.47;3.83;;;;;;;;;;6173764;23;20035;-58
2023/09/15 10:09:39;;;;;;;11.23;4.72;;;;;;;;;;6156776;23;20258;-58
2023/09/15 10:12:07;;;;;;;11.57;4.78;;;;;;;;;;6171208;23;20044;-58
2023/09/15 10:14:35;;;;;;;11.77;4.60;;;;;;;;;;6166686;23;20125;-58
2023/09/15 10:17:03;;;;;;;11.00;4.45;;;;;;;;;;6168292;23;20039;-59
2023/09/15 10:19:31;;;;;;;12.17;5.80;;;;;;;;;;6161427;23;20558;-59
2023/09/15 10:22:00;;;;;;;11.10;5.38;;;;;;;;;;6170592;23;20078;-58
2023/09/15 10:24:29;;;;;;;10.63;4.80;;;;;;;;;;6161996;23;20371;-58
2023/09/15 10:26:56;;;;;;;7.85;3.25;;;;;;;;;;6166303;23;20016;-58
2023/09/15 10:29:30;;;;;;;8.48;2.70;;;;;;;;;;6161310;23;20062;-58
2023/09/15 10:32:03;;;;;;;6.73;2.50;;;;;;;;;;6170967;23;20021;-57
2023/09/15 10:34:32;;;;;;;10.30;2.90;;;;;;;;;;6159769;23;20020;-58
2023/09/15 10:37:02;;;;;;;9.23;2.50;;;;;;;;;;6172137;23;20078;-58
2023/09/15 10:39:37;;;;;;;9.25;2.83;;;;;;;;;;6165434;23;20462;-59
2023/09/15 10:42:09;;;;;;;7.45;2.70;;;;;;;;;;6162820;23;20104;-58
2023/09/15 10:44:36;;;;;;;6.97;2.97;;;;;;;;;;6172405;23;20075;-58
2023/09/15 10:47:14;;;;;;;8.45;3.55;;;;;;;;;;6166311;23;20452;-57
2023/09/15 10:49:48;;;;;;;8.93;2.53;;;;;;;;;;6168184;23;20020;-57
2023/09/15 10:52:17;;;;;;;7.60;2.40;;;;;;;;;;6130788;23;20781;-58
2023/09/15 10:54:49;;;;;;;7.43;2.70;;;;;;;;;;6149617;23;20020;-58
2023/09/15 10:57:17;;;;;;;7.50;2.40;;;;;;;;;;6160169;23;20439;-58
2023/09/15 10:59:45;;;;;;;9.98;2.72;;;;;;;;;;6119583;23;20342;-56
2023/09/15 11:02:13;;;;;;;8.43;2.50;;;;;;;;;;6170836;23;20024;-57
2023/09/15 11:04:41;;;;;;;6.70;2.90;;;;;;;;;;6166780;23;20515;-57
2023/09/15 11:07:09;;;;;;;9.15;2.92;;;;;;;;;;6158117;23;20032;-58
2023/09/15 11:09:43;;;;;;;7.27;2.90;;;;;;;;;;6163297;23;20459;-57
2023/09/15 11:12:12;;;;;;;8.00;3.05;;;;;;;;;;6165931;23;20332;-57
2023/09/15 11:14:40;;;;;;;9.95;3.47;;;;;;;;;;6152774;23;20512;-56
2023/09/15 11:17:08;;;;;;;8.18;3.33;;;;;;;;;;6171702;23;20027;-58
2023/09/15 11:19:37;;;;;;;7.78;3.65;;;;;;;;;;6157040;23;20250;-57
2023/09/15 11:22:05;;;;;;;8.93;4.17;;;;;;;;;;6174112;23;20325;-55
2023/09/15 11:24:33;;;;;;;8.85;3.97;;;;;;;;;;6185355;23;20013;-59
2023/09/15 11:27:05;;;;;;;8.77;3.88;;;;;;;;;;6170487;23;20013;-57
2023/09/15 11:29:33;;;;;;;8.15;4.13;;;;;;;;;;6183226;23;20021;-57
2023/09/15 11:32:01;;;;;;;11.63;4.55;;;;;;;;;;6179826;23;20059;-57
2023/09/15 11:34:29;;;;;;;10.53;3.80;;;;;;;;;;6170845;23;20416;-55
2023/09/15 11:36:58;;;;;;;9.82;3.58;;;;;;;;;;6178473;23;20039;-57
2023/09/15 11:39:28;;;;;;;12.38;4.40;;;;;;;;;;6190503;23;20044;-57
2023/09/15 11:41:57;;;;;;;9.82;4.25;;;;;;;;;;6183002;23;20024;-57
2023/09/15 11:44:29;;;;;;;8.55;4.22;;;;;;;;;;6174878;23;20012;-57
2023/09/15 11:46:57;;;;;;;7.03;2.30;;;;;;;;;;6181909;23;20066;-56
2023/09/15 11:49:26;;;;;;;7.22;4.07;;;;;;;;;;6180321;23;20083;-56
2023/09/15 11:51:55;;;;;;;11.60;4.45;;;;;;;;;;6184707;23;20373;-56
2023/09/15 11:54:23;;;;;;;9.57;4.80;;;;;;;;;;6177974;23;20088;-57
2023/09/15 11:56:52;;;;;;;8.93;4.72;;;;;;;;;;6141761;23;20063;-56
2023/09/15 11:59:21;;;;;;;10.37;4.03;;;;;;;;;;6154002;23;20058;-57
2023/09/15 12:01:54;;;;;;;13.05;4.82;;;;;;;;;;6176171;23;20031;-56
2023/09/15 12:04:24;;;;;;;9.77;4.50;;;;;;;;;;6179089;23;20099;-56
2023/09/15 12:06:55;;;;;;;12.10;4.70;;;;;;;;;;6181209;23;20017;-57
2023/09/15 12:09:22;;;;;;;8.30;4.35;;;;;;;;;;6187501;23;20466;-55
2023/09/15 12:11:52;;;;;;;5.77;2.20;;;;;;;;;;6171239;23;20020;-56
2023/09/15 12:14:19;;;;;;;13.23;3.83;;;;;;;;;;6152235;23;20392;-55
2023/09/15 12:16:47;;;;;;;8.32;3.88;;;;;;;;;;6182836;23;20020;-56
2023/09/15 12:19:17;;;;;;;10.23;4.03;;;;;;;;;;6181467;23;20021;-55
2023/09/15 12:21:52;;;;;;;8.38;4.13;;;;;;;;;;6188161;23;20092;-57
2023/09/15 12:24:21;;;;;;;8.00;3.10;;;;;;;;;;6185734;23;20016;-57
2023/09/15 12:26:50;;;;;;;8.43;4.00;;;;;;;;;;6193079;23;20031;-56
2023/09/15 12:29:19;;;;;;;10.50;4.15;;;;;;;;;;6190888;23;20305;-57
2023/09/15 12:31:47;;;;;;;8.95;3.35;;;;;;;;;;6188443;23;20021;-55
2023/09/15 12:34:19;;;;;;;7.80;4.25;;;;;;;;;;6185171;23;20020;-57
2023/09/15 12:36:51;;;;;;;10.07;3.90;;;;;;;;;;6184118;23;20433;-59
2023/09/15 12:39:19;;;;;;;6.65;3.13;;;;;;;;;;6184254;23;20095;-58
2023/09/15 12:41:47;;;;;;;8.80;3.72;;;;;;;;;;6173877;23;20390;-58
2023/09/15 12:44:34;;;;;;;9.48;3.60;;;;;;;;;;6190389;23;20094;-58
2023/09/15 12:47:03;;;;;;;6.50;3.55;;;;;;;;;;6173805;23;20016;-57
2023/09/15 12:49:33;;;;;;;6.83;2.80;;;;;;;;;;6188804;23;20455;-57
2023/09/15 12:52:02;;;;;;;7.43;4.10;;;;;;;;;;6183284;23;20024;-57
2023/09/15 12:54:30;;;;;;;8.13;3.50;;;;;;;;;;6188409;23;20023;-58
2023/09/15 12:56:58;;;;;;;10.80;3.58;;;;;;;;;;6180237;23;20028;-58
2023/09/15 12:59:26;;;;;;;6.18;2.58;;;;;;;;;;6185873;23;20086;-58
2023/09/15 13:01:55;;;;;;;7.77;3.30;;;;;;;;;;6179740;23;20285;-58
2023/09/15 13:04:23;;;;;;;7.97;4.03;;;;;;;;;;6186562;23;20100;-58
2023/09/15 13:06:54;;;;;;;6.63;3.08;;;;;;;;;;6180790;23;20013;-58
2023/09/15 13:09:23;;;;;;;7.18;3.60;;;;;;;;;;6154911;23;20447;-58
2023/09/15 13:11:51;;;;;;;7.45;3.53;;;;;;;;;;6194109;23;20044;-58
2023/09/15 13:14:19;;;;;;;6.03;3.40;;;;;;;;;;6180264;23;20092;-58
2023/09/15 13:16:48;;;;;;;7.70;3.78;;;;;;;;;;6191183;23;20017;-58
2023/09/15 13:19:16;;;;;;;8.00;3.60;;;;;;;;;;6182070;23;20013;-58
2023/09/15 13:21:45;;;;;;;7.45;3.35;;;;;;;;;;6191374;23;20032;-58
2023/09/15 13:24:14;;;;;;;6.55;3.38;;;;;;;;;;6183110;23;20374;-58
2023/09/15 13:26:42;;;;;;;7.33;3.23;;;;;;;;;;6162584;23;20384;-58
2023/09/15 13:29:11;;;;;;;5.43;2.08;;;;;;;;;;6183651;23;20604;-58
2023/09/15 13:31:38;;;;;;;7.10;2.78;;;;;;;;;;6187506;23;20075;-58
2023/09/15 13:34:07;;;;;;;8.82;3.33;;;;;;;;;;6185486;23;20016;-59
2023/09/15 13:36:35;;;;;;;5.85;3.10;;;;;;;;;;6189497;23;20021;-58
2023/09/15 13:39:07;;;;;;;7.37;3.57;;;;;;;;;;6196208;23;20013;-58
2023/09/15 13:41:37;;;;;;;4.85;2.08;;;;;;;;;;6177047;23;20067;-57
2023/09/15 13:44:05;;;;;;;4.63;1.40;;;;;;;;;;6185225;23;20021;-58
2023/09/15 13:46:36;;;;;;;6.30;2.90;;;;;;;;;;6193056;23;20039;-57
2023/09/15 13:49:05;;;;;;;7.85;3.08;;;;;;;;;;6188188;23;20020;-58
2023/09/15 13:51:35;;;;;;;9.33;3.23;;;;;;;;;;6190170;23;20017;-58
2023/09/15 13:54:10;;;;;;;4.80;1.88;;;;;;;;;;6187017;23;20044;-58
2023/09/15 13:56:40;;;;;;;9.10;3.45;;;;;;;;;;6184881;23;20086;-59
2023/09/15 13:59:07;;;;;;;6.65;3.38;;;;;;;;;;6193260;23;20412;-55
2023/09/15 14:01:37;;;;;;;8.68;3.30;;;;;;;;;;6186976;23;20400;-59
2023/09/15 14:04:07;;;;;;;5.00;1.27;;;;;;;;;;6186745;23;20048;-58
2023/09/15 14:06:34;;;;;;;7.80;3.20;;;;;;;;;;6181827;23;20711;-58
2023/09/15 14:09:02;;;;;;;7.35;2.97;;;;;;;;;;6186726;23;20020;-58
2023/09/15 14:11:30;;;;;;;5.32;2.25;;;;;;;;;;6179238;23;20852;-58
2023/09/15 14:13:59;;;;;;;6.65;2.47;;;;;;;;;;6189159;23;20020;-58
2023/09/15 14:16:27;;;;;;;5.10;1.60;;;;;;;;;;6176390;23;20443;-58
2023/09/15 14:18:56;;;;;;;6.40;3.00;;;;;;;;;;6193996;23;20027;-58
2023/09/15 14:21:27;;;;;;;7.05;2.13;;;;;;;;;;6192672;23;20021;-58
2023/09/15 14:23:54;;;;;;;8.43;3.13;;;;;;;;;;6180139;23;20067;-58
2023/09/15 14:26:23;;;;;;;5.55;3.10;;;;;;;;;;6190360;23;20020;-58
2023/09/15 14:28:50;;;;;;;5.20;2.70;;;;;;;;;;6180835;23;20645;-59
2023/09/15 14:31:20;;;;;;;7.88;3.63;;;;;;;;;;6185915;23;20012;-58
2023/09/15 14:33:49;;;;;;;7.78;3.33;;;;;;;;;;6183618;23;20757;-57
2023/09/15 14:36:16;;;;;;;6.78;3.28;;;;;;;;;;6159654;23;20016;-62
2023/09/15 14:38:44;;;;;;;9.40;3.40;;;;;;;;;;6191649;23;20013;-56
2023/09/15 14:41:13;;;;;;;10.33;3.47;;;;;;;;;;6154931;23;20387;-57
2023/09/15 14:43:41;;;;;;;8.23;2.85;;;;;;;;;;6191667;23;20070;-58